Historical Weather Data

Soule Park Golf Course
1033 East Ojai Ave
Ojai, CA 93023
Date ET
(Inches)
Rain
(Inches)
Temp °F
Humidity
Avg
Wind MPH
Avg
Solar Wm2
Avg
High Ave Low
8/1/17 0.16 0.00 99.0 77.4 61.4 59 2.5 189
8/2/17 0.18 0.00 100.0 82.2 70.1 54 2.3 204
8/3/17 0.20 0.00 96.3 80.3 68.1 58 2.3 243
8/4/17 0.24 0.00 92.1 77.9 64.7 60 2.7 316
8/5/17 0.22 0.00 87.9 73.3 60.6 69 2.8 314
8/6/17 0.22 0.00 86.5 72.3 59.3 70 2.6 320
8/7/17 0.23 0.00 90.6 73.0 56.8 68 2.3 325
8/8/17 0.24 0.00 93.1 75.3 59.1 63 2.5 319
8/9/17 0.23 0.00 92.2 74.5 58.2 62 2.5 319
8/10/17 0.24 0.00 93.5 75.3 57.9 60 2.6 323
8/11/17 0.25 0.00 96.6 75.8 56.8 59 2.6 326
8/12/17 0.24 0.00 93.3 72.9 55.1 63 2.6 324
8/13/17 0.22 0.00 90.8 71.0 57.4 68 2.7 311
8/14/17 0.19 0.00 79.4 65.9 56.1 79 2.7 296
8/15/17 0.10 0.00 76.5 65.6 57.9 78 2.2 155
8/16/17 0.16 0.00 78.8 65.3 53.5 74 2.2 237
8/17/17 0.21 0.00 85.1 69.0 53.7 68 2.6 301
8/18/17 0.22 0.00 87.5 70.5 54.7 66 2.5 304
8/19/17 0.20 0.00 86.0 69.7 56.5 70 2.6 296
8/20/17 0.19 0.00 82.4 67.7 58.4 76 2.7 287
8/21/17 0.18 0.00 84.5 68.6 58.7 72 2.4 271
8/22/17 0.22 0.00 92.7 70.9 51.9 64 2.2 306
8/23/17 0.19 0.00 83.6 67.4 55.0 76 2.5 302
8/24/17 0.18 0.00 86.0 68.2 57.7 76 2.7 269
8/25/17 0.18 0.00 87.2 69.3 58.0 77 2.5 278
8/26/17 0.22 0.00 97.9 75.7 59.3 66 2.1 295
8/27/17 0.24 0.00 100.7 78.3 56.2 51 2.4 299
8/28/17 0.24 0.00 104.8 80.9 60.9 46 2.5 291
8/29/17 0.24 0.00 107.3 85.4 64.6 43 2.4 288
8/30/17 0.24 0.00 109.0 85.6 65.8 44 2.3 279
8/31/17 0.24 0.00 108.5 89.5 71.6 35 2.9 256